createdAt,value
2023-05-05T00:00:12.326Z,28.62
2023-05-05T00:01:12.395Z,28.65
2023-05-05T00:02:12.479Z,28.62
2023-05-05T00:03:12.589Z,28.67
2023-05-05T00:04:12.583Z,28.69
2023-05-05T00:05:12.590Z,28.64
2023-05-05T00:06:12.669Z,28.67
2023-05-05T00:07:12.722Z,28.61
2023-05-05T00:08:12.778Z,28.69
2023-05-05T00:09:12.834Z,28.67
2023-05-05T00:10:12.910Z,28.65
2023-05-05T00:11:12.979Z,28.65
2023-05-05T00:12:13.018Z,28.67
2023-05-05T00:13:13.181Z,28.67
2023-05-05T00:14:13.121Z,28.65
2023-05-05T00:15:13.198Z,28.61
2023-05-05T00:16:13.265Z,28.59
2023-05-05T00:17:13.393Z,28.65
2023-05-05T00:18:13.357Z,28.68
2023-05-05T00:19:13.343Z,28.71
2023-05-05T00:20:13.768Z,28.69
2023-05-05T00:21:13.368Z,28.61
2023-05-05T00:22:13.378Z,28.65
2023-05-05T00:23:13.400Z,28.65
2023-05-05T00:24:13.451Z,28.67
2023-05-05T00:25:13.498Z,28.58
2023-05-05T00:26:13.563Z,28.60
2023-05-05T00:27:13.640Z,28.57
2023-05-05T00:28:13.692Z,28.61
2023-05-05T00:29:13.732Z,28.59
2023-05-05T00:30:13.798Z,28.61
2023-05-05T00:31:13.867Z,28.62
2023-05-05T00:32:13.888Z,28.61
2023-05-05T00:33:13.978Z,28.67
2023-05-05T00:34:14.016Z,28.59
2023-05-05T00:35:14.099Z,28.64
2023-05-05T00:36:14.132Z,28.54
2023-05-05T00:37:14.193Z,28.58
2023-05-05T00:38:14.269Z,28.54
2023-05-05T00:39:14.280Z,28.57
2023-05-05T00:40:14.298Z,28.59
2023-05-05T00:41:14.311Z,28.57
2023-05-05T00:42:14.304Z,28.59
2023-05-05T00:43:14.326Z,28.51
2023-05-05T00:44:14.312Z,28.51
2023-05-05T00:45:14.355Z,28.49
2023-05-05T00:46:14.384Z,28.56
2023-05-05T00:47:14.378Z,28.55
2023-05-05T00:48:14.378Z,28.61
2023-05-05T00:49:14.402Z,28.54
2023-05-05T00:50:14.372Z,28.51
2023-05-05T00:51:14.387Z,28.44
2023-05-05T00:52:14.432Z,28.54
2023-05-05T00:53:14.436Z,28.48
2023-05-05T00:54:14.429Z,28.52
2023-05-05T00:55:14.447Z,28.52
2023-05-05T00:56:14.468Z,28.51
2023-05-05T00:57:14.469Z,28.54
2023-05-05T00:58:14.505Z,28.52
2023-05-05T00:59:14.478Z,28.52
2023-05-05T01:00:14.498Z,28.53
2023-05-05T01:01:14.517Z,28.48
2023-05-05T01:02:14.504Z,28.49
2023-05-05T01:03:14.634Z,28.52
2023-05-05T01:04:14.573Z,28.48
2023-05-05T01:05:14.555Z,28.51
2023-05-05T01:06:14.593Z,28.52
2023-05-05T01:07:14.613Z,28.52
2023-05-05T01:08:14.669Z,28.49
2023-05-05T01:09:14.729Z,28.45
2023-05-05T01:10:20.177Z,28.45
2023-05-05T01:11:15.778Z,28.48
2023-05-05T01:12:14.785Z,28.42
2023-05-05T01:13:14.853Z,28.47
2023-05-05T01:14:14.772Z,28.41
2023-05-05T01:15:14.777Z,28.45
2023-05-05T01:16:14.834Z,28.42
2023-05-05T01:17:14.716Z,28.41
2023-05-05T01:18:14.728Z,28.42
2023-05-05T01:19:14.698Z,28.41
2023-05-05T01:20:14.694Z,28.41
2023-05-05T01:21:14.765Z,28.45
2023-05-05T01:22:14.792Z,28.40
2023-05-05T01:23:14.864Z,28.48
2023-05-05T01:24:14.912Z,28.48
2023-05-05T01:25:14.981Z,28.40
2023-05-05T01:26:15.055Z,28.40
2023-05-05T01:27:15.103Z,28.33
2023-05-05T01:28:15.165Z,28.37
2023-05-05T01:29:15.181Z,28.41
2023-05-05T01:30:15.269Z,28.34
2023-05-05T01:31:15.406Z,28.40
2023-05-05T01:32:15.357Z,28.33
2023-05-05T01:33:15.367Z,28.37
2023-05-05T01:34:15.352Z,28.35
2023-05-05T01:35:15.381Z,28.35
2023-05-05T01:36:15.383Z,28.38
2023-05-05T01:37:15.444Z,28.38
2023-05-05T01:38:15.510Z,28.38
2023-05-05T01:39:15.573Z,28.34
2023-05-05T01:40:15.615Z,28.40
2023-05-05T01:41:15.683Z,28.35
2023-05-05T01:42:15.748Z,28.37
2023-05-05T01:43:15.805Z,28.37
2023-05-05T01:44:15.837Z,28.41
2023-05-05T01:45:15.891Z,28.34
2023-05-05T01:46:16.110Z,28.40
2023-05-05T01:47:16.033Z,28.37
2023-05-05T01:48:16.077Z,28.37
2023-05-05T01:49:16.110Z,28.35
2023-05-05T01:50:16.151Z,28.35
2023-05-05T01:51:16.166Z,28.36
2023-05-05T01:52:16.155Z,28.38
2023-05-05T01:53:16.157Z,28.34
2023-05-05T01:54:16.205Z,28.32
2023-05-05T01:55:16.207Z,28.31
2023-05-05T01:56:16.207Z,28.33
2023-05-05T01:57:16.210Z,28.34
2023-05-05T01:58:16.224Z,28.30
2023-05-05T01:59:16.227Z,28.40
2023-05-05T02:00:16.238Z,28.34
2023-05-05T02:01:16.274Z,28.31
2023-05-05T02:02:16.298Z,28.37
2023-05-05T02:03:16.391Z,28.37
2023-05-05T02:04:16.259Z,28.31
2023-05-05T02:05:16.280Z,28.34
2023-05-05T02:06:16.282Z,28.35
2023-05-05T02:07:16.317Z,28.32
2023-05-05T02:08:16.290Z,28.31
2023-05-05T02:09:16.325Z,28.27
2023-05-05T02:10:16.308Z,28.27
2023-05-05T02:11:16.345Z,28.27
2023-05-05T02:12:16.345Z,28.21
2023-05-05T02:13:16.498Z,28.24
2023-05-05T02:14:16.379Z,28.29
2023-05-05T02:15:16.371Z,28.24
2023-05-05T02:16:16.433Z,28.24
2023-05-05T02:17:16.393Z,28.28
2023-05-05T02:18:16.395Z,28.28
2023-05-05T02:19:16.406Z,28.29
2023-05-05T02:20:16.394Z,28.27
2023-05-05T02:21:16.429Z,28.27
2023-05-05T02:22:16.459Z,28.28
2023-05-05T02:23:16.440Z,28.21
2023-05-05T02:24:16.466Z,28.27
2023-05-05T02:25:16.471Z,28.24
2023-05-05T02:26:16.490Z,28.28
2023-05-05T02:27:16.480Z,28.23
2023-05-05T02:28:16.503Z,28.24
2023-05-05T02:29:16.505Z,28.28
2023-05-05T02:30:16.499Z,28.25
2023-05-05T02:31:16.558Z,28.24
2023-05-05T02:32:16.520Z,28.27
2023-05-05T02:33:16.559Z,28.28
2023-05-05T02:34:16.553Z,28.22
2023-05-05T02:35:16.545Z,28.22
2023-05-05T02:36:16.586Z,28.19
2023-05-05T02:37:16.580Z,28.20
2023-05-05T02:38:16.603Z,28.17
2023-05-05T02:39:16.618Z,28.15
2023-05-05T02:40:16.601Z,28.20
2023-05-05T02:41:16.682Z,28.15
2023-05-05T02:42:16.688Z,28.19
2023-05-05T02:43:16.808Z,28.18
2023-05-05T02:44:16.739Z,28.17
2023-05-05T02:45:16.758Z,28.12
2023-05-05T02:46:16.790Z,28.17
2023-05-05T02:47:16.799Z,28.15
2023-05-05T02:48:16.839Z,28.14
2023-05-05T02:49:16.875Z,28.14
2023-05-05T02:50:16.889Z,28.13
2023-05-05T02:51:16.893Z,28.17
2023-05-05T02:52:16.904Z,28.14
2023-05-05T02:53:16.902Z,28.18
2023-05-05T02:54:16.946Z,28.14
2023-05-05T02:55:16.941Z,28.11
2023-05-05T02:56:16.924Z,28.08
2023-05-05T02:57:16.944Z,28.17
2023-05-05T02:58:16.952Z,28.24
2023-05-05T02:59:17.011Z,28.21
2023-05-05T03:00:17.060Z,28.24
2023-05-05T03:01:17.088Z,28.18
2023-05-05T03:02:17.086Z,28.21
2023-05-05T03:03:17.149Z,28.24
2023-05-05T03:04:17.086Z,28.25
2023-05-05T03:05:17.093Z,28.27
2023-05-05T03:06:17.167Z,28.27
2023-05-05T03:07:17.157Z,28.25
2023-05-05T03:08:17.213Z,28.25
2023-05-05T03:09:17.246Z,28.27
2023-05-05T03:10:17.312Z,28.23
2023-05-05T03:11:17.350Z,28.24
2023-05-05T03:12:17.383Z,28.23
2023-05-05T03:13:17.433Z,28.22
2023-05-05T03:14:17.501Z,28.22
2023-05-05T03:15:17.508Z,28.19
2023-05-05T03:16:17.610Z,28.19
2023-05-05T03:17:17.621Z,28.12
2023-05-05T03:18:17.698Z,28.14
2023-05-05T03:19:17.697Z,28.10
2023-05-05T03:20:17.753Z,28.12
2023-05-05T03:21:17.793Z,28.11
2023-05-05T03:22:17.854Z,28.10
2023-05-05T03:23:17.850Z,28.09
2023-05-05T03:24:17.881Z,28.02
2023-05-05T03:25:17.933Z,28.02
2023-05-05T03:26:17.999Z,28.00
2023-05-05T03:27:18.014Z,27.99
2023-05-05T03:28:18.054Z,27.99
2023-05-05T03:29:18.034Z,27.96
2023-05-05T03:30:18.053Z,27.95
2023-05-05T03:31:18.134Z,27.92
2023-05-05T03:32:18.098Z,27.91
2023-05-05T03:33:18.114Z,27.85
2023-05-05T03:34:18.119Z,27.85
2023-05-05T03:35:18.094Z,27.84
2023-05-05T03:36:18.163Z,27.85
2023-05-05T03:37:18.143Z,27.83
2023-05-05T03:38:18.146Z,27.84
2023-05-05T03:39:18.191Z,27.84
2023-05-05T03:40:18.175Z,27.80
2023-05-05T03:41:18.225Z,27.73
2023-05-05T03:42:18.250Z,27.76
2023-05-05T03:43:18.254Z,27.75
2023-05-05T03:44:18.210Z,27.73
2023-05-05T03:45:18.251Z,27.73
2023-05-05T03:46:18.368Z,27.73
2023-05-05T03:47:18.274Z,27.67
2023-05-05T03:48:18.329Z,27.75
2023-05-05T03:49:18.356Z,27.66
2023-05-05T03:50:18.354Z,27.66
2023-05-05T03:51:18.406Z,27.69
2023-05-05T03:52:18.429Z,27.66
2023-05-05T03:53:18.477Z,27.69
2023-05-05T03:54:18.502Z,27.65
2023-05-05T03:55:18.526Z,27.66
2023-05-05T03:56:18.571Z,27.69
2023-05-05T03:57:18.602Z,27.63
2023-05-05T03:58:18.624Z,27.63
2023-05-05T03:59:18.670Z,27.64
2023-05-05T04:00:18.667Z,27.68
2023-05-05T04:01:18.670Z,27.64
2023-05-05T04:02:19.015Z,27.63
2023-05-05T04:03:18.885Z,27.68
2023-05-05T04:04:18.852Z,27.66
2023-05-05T04:05:18.838Z,27.59
2023-05-05T04:06:18.882Z,27.62
2023-05-05T04:07:18.885Z,27.61
2023-05-05T04:08:18.906Z,27.59
2023-05-05T04:09:18.945Z,27.58
2023-05-05T04:10:18.982Z,27.57
2023-05-05T04:11:18.998Z,27.58
2023-05-05T04:12:19.057Z,27.54
2023-05-05T04:13:19.099Z,27.54
2023-05-05T04:14:19.225Z,27.56
2023-05-05T04:15:19.077Z,27.64
2023-05-05T04:16:19.136Z,27.55
2023-05-05T04:17:19.098Z,27.58
2023-05-05T04:18:19.109Z,27.58
2023-05-05T04:19:19.159Z,27.55
2023-05-05T04:20:19.188Z,27.58
2023-05-05T04:21:19.205Z,27.58
2023-05-05T04:22:19.240Z,27.55
2023-05-05T04:23:19.282Z,27.54
2023-05-05T04:24:19.334Z,27.56
2023-05-05T04:25:19.380Z,27.58
2023-05-05T04:26:19.405Z,27.59
2023-05-05T04:27:19.415Z,27.58
2023-05-05T04:28:21.628Z,27.59
2023-05-05T04:29:19.599Z,27.59
2023-05-05T04:30:19.624Z,27.55
2023-05-05T04:31:19.694Z,27.55
2023-05-05T04:32:19.671Z,27.51
2023-05-05T04:33:19.648Z,27.56
2023-05-05T04:34:19.659Z,27.55
2023-05-05T04:35:19.709Z,27.58
2023-05-05T04:36:19.771Z,27.52
2023-05-05T04:37:19.787Z,27.49
2023-05-05T04:38:19.861Z,27.55
2023-05-05T04:39:19.820Z,27.56
2023-05-05T04:40:19.858Z,27.54
2023-05-05T04:41:19.878Z,27.56
2023-05-05T04:42:19.922Z,27.59
2023-05-05T04:43:19.942Z,27.59
2023-05-05T04:44:19.955Z,27.66
2023-05-05T04:45:20.016Z,27.56
2023-05-05T04:46:20.064Z,27.52
2023-05-05T04:47:20.061Z,27.56
2023-05-05T04:48:20.105Z,27.58
2023-05-05T04:49:20.110Z,27.56
2023-05-05T04:50:20.153Z,27.55
2023-05-05T04:51:20.201Z,27.58
2023-05-05T04:52:20.194Z,27.55
2023-05-05T04:53:20.226Z,27.53
2023-05-05T04:54:20.271Z,27.56
2023-05-05T04:55:20.285Z,27.55
2023-05-05T04:56:20.324Z,27.60
2023-05-05T04:57:20.339Z,27.55
2023-05-05T04:58:20.409Z,27.59
2023-05-05T04:59:20.421Z,27.55
2023-05-05T05:00:20.435Z,27.59
2023-05-05T05:01:27.956Z,27.56
2023-05-05T05:02:20.461Z,27.49
2023-05-05T05:03:20.485Z,27.48
2023-05-05T05:04:20.433Z,27.56
2023-05-05T05:05:20.388Z,27.56
2023-05-05T05:06:20.408Z,27.53
2023-05-05T05:07:20.399Z,27.54
2023-05-05T05:08:20.411Z,27.56
2023-05-05T05:09:20.393Z,27.56
2023-05-05T05:10:20.383Z,27.56
2023-05-05T05:11:20.367Z,27.55
2023-05-05T05:12:20.391Z,27.56
2023-05-05T05:13:20.428Z,27.59
2023-05-05T05:14:20.371Z,27.53
2023-05-05T05:15:20.407Z,27.55
2023-05-05T05:16:20.418Z,27.50
2023-05-05T05:17:20.374Z,27.53
2023-05-05T05:18:20.325Z,27.56
2023-05-05T05:19:20.304Z,27.49
2023-05-05T05:20:20.361Z,27.60
2023-05-05T05:21:20.313Z,27.60
2023-05-05T05:22:20.301Z,27.56
2023-05-05T05:23:20.282Z,27.54
2023-05-05T05:24:20.280Z,27.59
2023-05-05T05:25:20.273Z,27.59
2023-05-05T05:26:20.290Z,27.59
2023-05-05T05:27:20.281Z,27.52
2023-05-05T05:28:20.244Z,27.56
2023-05-05T05:30:20.564Z,27.58
2023-05-05T05:31:20.605Z,27.60
2023-05-05T05:32:20.501Z,27.56
2023-05-05T05:33:20.535Z,27.59
2023-05-05T05:34:20.527Z,27.44
2023-05-05T05:35:20.500Z,27.54
2023-05-05T05:36:20.568Z,27.57
2023-05-05T05:37:20.514Z,27.61
2023-05-05T05:38:20.568Z,27.71
2023-05-05T05:39:20.467Z,27.81
2023-05-05T05:40:20.500Z,27.95
2023-05-05T05:41:20.484Z,27.48
2023-05-05T05:42:20.454Z,26.64
2023-05-05T05:43:20.449Z,26.72
2023-05-05T05:44:20.426Z,26.59
2023-05-05T05:45:20.480Z,26.63
2023-05-05T05:46:27.532Z,26.88
2023-05-05T05:47:20.755Z,27.25
2023-05-05T05:48:20.412Z,27.53
2023-05-05T05:49:20.439Z,27.61
2023-05-05T05:50:20.403Z,27.82
2023-05-05T05:51:20.407Z,28.00
2023-05-05T05:52:20.419Z,27.97
2023-05-05T05:53:20.421Z,27.81
2023-05-05T05:54:20.348Z,27.80
2023-05-05T05:55:20.354Z,27.76
2023-05-05T05:56:20.379Z,27.84
2023-05-05T05:57:20.390Z,27.67
2023-05-05T05:58:20.349Z,27.85
2023-05-05T05:59:20.362Z,28.17
2023-05-05T06:00:20.330Z,28.34
2023-05-05T06:01:20.354Z,28.27
2023-05-05T06:02:20.416Z,28.51
2023-05-05T06:03:20.445Z,28.66
2023-05-05T06:04:20.303Z,28.77
2023-05-05T06:05:20.304Z,28.83
2023-05-05T06:06:20.286Z,28.83
2023-05-05T06:07:20.331Z,28.79
2023-05-05T06:08:20.286Z,28.94
2023-05-05T06:09:20.266Z,28.99
2023-05-05T06:10:27.859Z,29.09
2023-05-05T06:11:21.272Z,28.84
2023-05-05T06:12:20.250Z,29.05
2023-05-05T06:13:20.265Z,29.10
2023-05-05T06:14:20.287Z,29.15
2023-05-05T06:15:20.237Z,29.17
2023-05-05T06:16:20.276Z,29.18
2023-05-05T06:17:20.223Z,29.23
2023-05-05T06:18:20.284Z,29.22
2023-05-05T06:19:20.190Z,29.06
2023-05-05T06:20:20.203Z,29.22
2023-05-05T06:21:20.227Z,29.28
2023-05-05T06:22:20.189Z,29.31
2023-05-05T06:23:20.172Z,29.32
2023-05-05T06:24:20.771Z,29.39
2023-05-05T06:25:20.165Z,29.41
2023-05-05T06:26:20.167Z,29.48
2023-05-05T06:27:20.136Z,29.61
2023-05-05T06:28:20.273Z,29.60
2023-05-05T06:29:20.199Z,29.58
2023-05-05T06:30:20.247Z,29.63
2023-05-05T06:31:20.315Z,29.71
2023-05-05T06:32:20.328Z,29.71
2023-05-05T06:33:20.367Z,29.78
2023-05-05T06:34:20.369Z,29.74
2023-05-05T06:35:20.404Z,29.84
2023-05-05T06:36:20.511Z,29.85
2023-05-05T06:37:20.533Z,28.37
2023-05-05T06:38:20.533Z,29.03
2023-05-05T06:39:20.518Z,29.22
2023-05-05T06:40:20.542Z,29.33
2023-05-05T06:41:20.602Z,29.23
2023-05-05T06:42:20.631Z,29.63
2023-05-05T06:43:20.670Z,29.68
2023-05-05T06:44:20.700Z,29.81
2023-05-05T06:45:20.719Z,29.94
2023-05-05T06:46:20.843Z,29.97
2023-05-05T06:47:20.813Z,30.18
2023-05-05T06:48:21.282Z,30.61
2023-05-05T06:49:20.926Z,30.55
2023-05-05T06:50:20.951Z,30.46
2023-05-05T06:51:20.933Z,30.36
2023-05-05T06:52:20.978Z,30.29
2023-05-05T06:53:21.285Z,29.98
2023-05-05T06:54:21.021Z,30.22
2023-05-05T06:55:21.068Z,30.15
2023-05-05T06:56:21.176Z,30.06
2023-05-05T06:57:21.153Z,29.95
2023-05-05T06:58:21.334Z,29.95
2023-05-05T06:59:21.207Z,29.86
2023-05-05T07:00:21.215Z,29.81
2023-05-05T07:01:21.316Z,29.62
2023-05-05T07:02:21.313Z,28.42
2023-05-05T07:03:21.421Z,28.47
2023-05-05T07:04:22.318Z,28.25
2023-05-05T07:05:21.350Z,27.75
2023-05-05T07:06:21.298Z,28.40
2023-05-05T07:07:21.326Z,28.72
2023-05-05T07:08:21.341Z,28.51
2023-05-05T07:09:21.370Z,27.90
2023-05-05T07:10:21.392Z,28.47
2023-05-05T07:11:21.438Z,28.48
2023-05-05T07:12:21.481Z,28.53
2023-05-05T07:13:21.525Z,28.40
2023-05-05T07:14:24.128Z,27.92
2023-05-05T07:15:28.850Z,27.51
2023-05-05T07:16:22.631Z,27.52
2023-05-05T07:17:21.596Z,27.91
2023-05-05T07:18:21.615Z,27.69
2023-05-05T07:19:21.534Z,27.86
2023-05-05T07:20:21.557Z,27.85
2023-05-05T07:21:21.548Z,27.99
2023-05-05T07:22:21.557Z,27.50
2023-05-05T07:23:21.480Z,27.24
2023-05-05T07:24:21.538Z,26.64
2023-05-05T07:25:21.532Z,27.15
2023-05-05T07:26:21.526Z,26.64
2023-05-05T07:27:21.497Z,26.94
2023-05-05T07:28:21.490Z,26.49
2023-05-05T07:29:21.421Z,26.84
2023-05-05T07:30:21.656Z,26.99
2023-05-05T07:31:21.464Z,27.10
2023-05-05T07:32:21.682Z,27.14
2023-05-05T07:33:21.811Z,27.13
2023-05-05T07:34:21.568Z,26.99
2023-05-05T07:35:21.636Z,27.28
2023-05-05T07:36:21.653Z,27.85
2023-05-05T07:37:21.662Z,27.95
2023-05-05T07:38:21.643Z,28.22
2023-05-05T07:39:23.307Z,28.21
2023-05-05T07:40:21.676Z,28.37
2023-05-05T07:41:21.622Z,28.78
2023-05-05T07:42:21.635Z,28.76
2023-05-05T07:43:21.662Z,28.79
2023-05-05T07:44:21.677Z,29.12
2023-05-05T07:45:21.743Z,29.12
2023-05-05T07:46:21.855Z,29.28
2023-05-05T07:47:21.930Z,29.47
2023-05-05T07:48:21.945Z,29.52
2023-05-05T07:49:21.974Z,29.49
2023-05-05T07:50:21.994Z,29.61
2023-05-05T07:51:22.056Z,29.68
2023-05-05T07:52:33.075Z,29.67
2023-05-05T07:53:23.127Z,29.82
2023-05-05T07:54:22.113Z,29.80
2023-05-05T07:55:22.104Z,29.99
2023-05-05T07:56:22.097Z,29.93
2023-05-05T07:57:22.100Z,29.90
2023-05-05T07:58:22.117Z,29.90
2023-05-05T07:59:22.075Z,29.82
2023-05-05T08:00:22.106Z,29.64
2023-05-05T08:01:22.091Z,29.76
2023-05-05T08:02:22.191Z,29.68
2023-05-05T08:03:22.292Z,29.86
2023-05-05T08:04:22.307Z,29.79
2023-05-05T08:05:22.327Z,29.68
2023-05-05T08:06:22.419Z,29.78
2023-05-05T08:07:22.311Z,29.64
2023-05-05T08:08:22.395Z,29.57
2023-05-05T08:09:22.393Z,29.55
2023-05-05T08:10:22.457Z,29.55
2023-05-05T08:11:22.441Z,29.59
2023-05-05T08:12:22.519Z,29.53
2023-05-05T08:13:22.552Z,29.32
2023-05-05T08:14:22.604Z,29.33
2023-05-05T08:15:23.296Z,29.25
2023-05-05T08:16:22.664Z,29.25
2023-05-05T08:17:22.666Z,29.11
2023-05-05T08:18:22.637Z,29.22
2023-05-05T08:19:28.793Z,29.17
2023-05-05T08:20:23.776Z,29.07
2023-05-05T08:21:22.642Z,29.10
2023-05-05T08:22:22.675Z,28.93
2023-05-05T08:23:22.593Z,28.83
2023-05-05T08:24:22.713Z,28.83
2023-05-05T08:25:22.551Z,28.98
2023-05-05T08:26:22.576Z,28.90
2023-05-05T08:27:23.341Z,28.88
2023-05-05T08:28:22.785Z,28.86
2023-05-05T08:29:22.537Z,28.79
2023-05-05T08:30:22.557Z,28.74
2023-05-05T08:31:22.588Z,27.81
2023-05-05T08:32:22.519Z,28.09
2023-05-05T08:33:22.840Z,28.18
2023-05-05T08:34:22.535Z,28.22
2023-05-05T08:35:22.530Z,28.18
2023-05-05T08:36:22.668Z,28.05
2023-05-05T08:37:22.694Z,28.02
2023-05-05T08:38:22.690Z,27.97
2023-05-05T08:39:22.746Z,27.91
2023-05-05T08:40:22.863Z,27.70
2023-05-05T08:41:22.820Z,27.80
2023-05-05T08:42:36.091Z,27.67
2023-05-05T08:43:23.886Z,27.60
2023-05-05T08:44:23.084Z,27.49
2023-05-05T08:45:22.803Z,27.44
2023-05-05T08:46:22.856Z,27.41
2023-05-05T08:47:22.820Z,27.29
2023-05-05T08:48:22.793Z,27.29
2023-05-05T08:49:22.820Z,27.25
2023-05-05T08:50:22.823Z,26.87
2023-05-05T08:51:22.759Z,26.84
2023-05-05T08:52:22.836Z,26.95
2023-05-05T08:53:22.825Z,26.88
2023-05-05T08:54:22.750Z,26.92
2023-05-05T08:55:22.751Z,27.01
2023-05-05T08:56:22.731Z,27.11
2023-05-05T08:57:22.762Z,27.23
2023-05-05T08:58:22.849Z,27.47
2023-05-05T08:59:22.861Z,27.60
2023-05-05T09:00:22.995Z,27.64
2023-05-05T09:01:22.958Z,27.86
2023-05-05T09:02:22.964Z,27.92
2023-05-05T09:03:22.960Z,27.80
2023-05-05T09:04:22.978Z,27.86
2023-05-05T09:05:23.005Z,28.07
2023-05-05T09:06:23.094Z,28.06
2023-05-05T09:07:23.130Z,28.03
2023-05-05T09:08:23.400Z,28.10
2023-05-05T09:09:23.268Z,28.19
2023-05-05T09:10:23.313Z,28.30
2023-05-05T09:11:23.330Z,28.45
2023-05-05T09:12:23.374Z,28.39
2023-05-05T09:13:23.421Z,28.23
2023-05-05T09:14:23.487Z,28.23
2023-05-05T09:15:23.610Z,27.89
2023-05-05T09:16:23.609Z,28.11
2023-05-05T09:17:23.758Z,28.28
2023-05-05T09:18:23.748Z,28.17
2023-05-05T09:19:23.786Z,27.98
2023-05-05T09:20:23.839Z,27.70
2023-05-05T09:21:23.879Z,27.63
2023-05-05T09:22:24.057Z,27.60
2023-05-05T09:23:23.990Z,27.43
2023-05-05T09:24:24.131Z,27.33
2023-05-05T09:25:24.139Z,27.35
2023-05-05T09:26:24.186Z,27.29
2023-05-05T09:27:24.256Z,27.21
2023-05-05T09:28:24.311Z,26.98
2023-05-05T09:29:24.379Z,26.90
2023-05-05T09:30:24.457Z,26.61
2023-05-05T09:31:24.615Z,26.64
2023-05-05T09:32:24.667Z,26.68
2023-05-05T09:33:24.844Z,26.47
2023-05-05T09:34:24.720Z,26.49
2023-05-05T09:35:24.775Z,26.50
2023-05-05T09:36:24.790Z,27.38
2023-05-05T09:37:24.855Z,27.20
2023-05-05T09:38:24.922Z,27.15
2023-05-05T09:39:24.957Z,26.95
2023-05-05T09:40:25.113Z,26.76
2023-05-05T09:41:25.083Z,26.39
2023-05-05T09:42:25.134Z,26.21
2023-05-05T09:43:25.396Z,26.11
2023-05-05T09:44:25.278Z,25.71
2023-05-05T09:45:25.314Z,25.68
2023-05-05T09:46:25.480Z,25.69
2023-05-05T09:47:29.738Z,25.25
2023-05-05T09:48:25.465Z,25.09
2023-05-05T09:49:25.865Z,25.39
2023-05-05T09:50:25.391Z,25.13
2023-05-05T09:51:25.372Z,25.09
2023-05-05T09:52:25.396Z,25.13
2023-05-05T09:53:25.408Z,25.16
2023-05-05T09:54:25.421Z,25.07
2023-05-05T09:55:25.376Z,25.12
2023-05-05T09:56:25.424Z,25.16
2023-05-05T09:57:25.339Z,25.09
2023-05-05T09:58:25.390Z,25.12
2023-05-05T09:59:25.345Z,25.34
2023-05-05T10:00:25.345Z,25.46
2023-05-05T10:01:25.407Z,25.43
2023-05-05T10:02:25.335Z,25.53
2023-05-05T10:03:25.314Z,25.39
2023-05-05T10:04:25.445Z,25.28
2023-05-05T10:05:25.414Z,25.28
2023-05-05T10:06:25.310Z,25.32
2023-05-05T10:07:25.335Z,25.48
2023-05-05T10:08:25.261Z,25.66
2023-05-05T10:09:25.281Z,25.68
2023-05-05T10:10:26.468Z,25.75
2023-05-05T10:11:25.244Z,25.65
2023-05-05T10:12:25.311Z,25.59
2023-05-05T10:13:25.240Z,25.57
2023-05-05T10:14:25.248Z,25.46
2023-05-05T10:15:25.247Z,25.23
2023-05-05T10:16:26.340Z,25.22
2023-05-05T10:17:25.409Z,25.03
2023-05-05T10:18:25.543Z,24.99
2023-05-05T10:19:25.445Z,24.90
2023-05-05T10:20:25.408Z,25.09
2023-05-05T10:21:25.411Z,25.27
2023-05-05T10:22:25.463Z,25.52
2023-05-05T10:23:25.401Z,25.58
2023-05-05T10:24:25.443Z,25.62
2023-05-05T10:25:25.455Z,25.90
2023-05-05T10:26:25.424Z,26.27
2023-05-05T10:27:25.432Z,26.60
2023-05-05T10:28:25.508Z,26.72
2023-05-05T10:29:25.842Z,26.90
2023-05-05T10:30:25.458Z,26.84
2023-05-05T10:31:26.774Z,26.76
2023-05-05T10:32:51.527Z,26.73
2023-05-05T10:33:31.164Z,26.77
2023-05-05T10:34:26.521Z,26.74
2023-05-05T10:35:25.442Z,26.75
2023-05-05T10:36:25.425Z,26.71
2023-05-05T10:37:25.417Z,26.69
2023-05-05T10:38:26.742Z,26.73
2023-05-05T10:39:25.430Z,26.71
2023-05-05T10:40:25.410Z,26.73
2023-05-05T10:41:25.384Z,26.73
2023-05-05T10:42:25.388Z,26.75
2023-05-05T10:43:25.416Z,26.71
2023-05-05T10:44:25.400Z,26.68
2023-05-05T10:45:25.426Z,26.71
2023-05-05T10:46:25.404Z,26.68
2023-05-05T10:47:25.340Z,26.67
2023-05-05T10:48:25.368Z,26.70
2023-05-05T10:49:25.320Z,26.66
2023-05-05T10:50:25.331Z,26.71
2023-05-05T10:51:38.649Z,26.73
2023-05-05T10:52:26.329Z,26.66
2023-05-05T10:53:25.310Z,26.67
2023-05-05T10:54:25.371Z,26.69
2023-05-05T10:55:25.279Z,26.66
2023-05-05T10:56:25.283Z,26.66
2023-05-05T10:57:25.269Z,26.67
2023-05-05T10:58:25.270Z,26.66
2023-05-05T10:59:25.239Z,26.63
2023-05-05T11:00:26.887Z,26.68
2023-05-05T11:01:25.260Z,26.70
2023-05-05T11:02:25.339Z,26.69
2023-05-05T11:03:25.300Z,26.67
2023-05-05T11:04:25.216Z,26.66
2023-05-05T11:05:25.192Z,26.64
2023-05-05T11:06:25.211Z,26.63
2023-05-05T11:07:25.198Z,26.63
2023-05-05T11:08:25.261Z,26.65
2023-05-05T11:09:25.272Z,26.66
2023-05-05T11:10:25.311Z,26.66
2023-05-05T11:11:25.337Z,26.66
2023-05-05T11:12:25.395Z,26.63
2023-05-05T11:13:25.430Z,26.68
2023-05-05T11:14:25.414Z,26.66
2023-05-05T11:15:25.438Z,26.63
2023-05-05T11:16:25.461Z,26.65
2023-05-05T11:17:25.441Z,26.70
2023-05-05T11:18:25.471Z,26.68
2023-05-05T11:19:25.479Z,26.64
2023-05-05T11:20:25.450Z,26.65
2023-05-05T11:21:25.456Z,26.65
2023-05-05T11:22:25.459Z,26.64
2023-05-05T11:23:25.469Z,26.64
2023-05-05T11:24:25.485Z,26.64
2023-05-05T11:25:25.450Z,26.62
2023-05-05T11:26:25.503Z,26.66
2023-05-05T11:27:25.548Z,26.69
2023-05-05T11:28:25.545Z,26.64
2023-05-05T11:29:25.534Z,26.65
2023-05-05T11:30:25.606Z,26.68
2023-05-05T11:31:25.618Z,26.69
2023-05-05T11:32:25.713Z,26.68
2023-05-05T11:33:25.658Z,26.68
2023-05-05T11:34:25.921Z,26.69
2023-05-05T11:35:25.714Z,26.67
2023-05-05T11:36:25.719Z,26.63
2023-05-05T11:37:25.712Z,26.65
2023-05-05T11:38:25.706Z,26.68
2023-05-05T11:39:25.707Z,26.68
2023-05-05T11:40:25.697Z,26.68
2023-05-05T11:41:25.707Z,26.64
2023-05-05T11:42:25.828Z,26.67
2023-05-05T11:43:25.717Z,26.67
2023-05-05T11:44:25.685Z,26.69
2023-05-05T11:45:25.752Z,26.65
2023-05-05T11:46:25.711Z,26.68
2023-05-05T11:47:25.679Z,26.72
2023-05-05T11:48:25.805Z,26.69
2023-05-05T11:49:25.695Z,26.69
2023-05-05T11:50:25.885Z,26.71
2023-05-05T11:51:25.678Z,26.69
2023-05-05T11:52:25.684Z,26.70
2023-05-05T11:53:25.628Z,26.71
2023-05-05T11:54:25.681Z,26.69
2023-05-05T11:55:25.652Z,26.72
2023-05-05T11:56:25.620Z,26.71
2023-05-05T11:57:25.637Z,26.71
2023-05-05T11:58:25.657Z,26.72
2023-05-05T11:59:25.632Z,26.72
2023-05-05T12:00:25.636Z,26.72
2023-05-05T12:01:25.647Z,26.75
2023-05-05T12:02:25.674Z,26.71
2023-05-05T12:03:25.798Z,26.72
2023-05-05T12:04:25.806Z,26.71
2023-05-05T12:05:25.637Z,26.71
2023-05-05T12:06:25.652Z,26.77
2023-05-05T12:07:25.643Z,26.74
2023-05-05T12:08:25.601Z,26.71
2023-05-05T12:09:25.636Z,26.72
2023-05-05T12:10:25.652Z,26.78
2023-05-05T12:11:25.672Z,26.70
2023-05-05T12:12:25.743Z,26.72
2023-05-05T12:13:26.024Z,26.70
2023-05-05T12:14:25.872Z,26.75
2023-05-05T12:15:25.879Z,26.79
2023-05-05T12:16:25.957Z,26.72
2023-05-05T12:17:25.989Z,26.71
2023-05-05T12:18:26.031Z,26.74
2023-05-05T12:19:26.077Z,26.72
2023-05-05T12:20:26.232Z,26.78
2023-05-05T12:21:26.126Z,26.72
2023-05-05T12:22:26.185Z,26.78
2023-05-05T12:23:26.248Z,26.75
2023-05-05T12:24:26.263Z,26.77
2023-05-05T12:25:26.308Z,26.72
2023-05-05T12:26:26.362Z,26.78
2023-05-05T12:27:26.428Z,26.75
2023-05-05T12:28:26.452Z,26.75
2023-05-05T12:29:26.484Z,26.75
2023-05-05T12:30:26.519Z,26.73
2023-05-05T12:31:26.578Z,26.72
2023-05-05T12:32:26.601Z,26.76
2023-05-05T12:33:26.634Z,26.73
2023-05-05T12:34:26.651Z,26.72
2023-05-05T12:35:26.700Z,26.71
2023-05-05T12:36:28.654Z,26.72
2023-05-05T12:37:26.747Z,26.71
2023-05-05T12:38:26.755Z,26.73
2023-05-05T12:39:26.748Z,26.72
2023-05-05T12:40:26.826Z,26.69
2023-05-05T12:41:26.810Z,26.69
2023-05-05T12:42:26.845Z,26.71
2023-05-05T12:43:26.917Z,26.68
2023-05-05T12:44:26.977Z,26.71
2023-05-05T12:45:27.007Z,26.73
2023-05-05T12:46:27.135Z,26.68
2023-05-05T12:47:27.105Z,26.72
2023-05-05T12:48:27.132Z,26.73
2023-05-05T12:49:27.172Z,26.73
2023-05-05T12:50:27.235Z,26.73
2023-05-05T12:51:27.304Z,26.66
2023-05-05T12:52:27.446Z,26.62
2023-05-05T12:53:27.366Z,26.62